Hilo, HI (96720)

6:46 AM HST on August 27, 2014 (GMT -1000)
Hilo International | Change Station
CLOSE
Current Station
Airport
Location: Hilo,
Elevation: 36 ft
Nearby Weather Stations

Elev 36 ft 19.72 °N, 155.05 °W | Updated 53 minutes ago

Overcast
Overcast
73 °F
Feels Like 73 °F
N
4
Wind Variable Wind from WSW

Today
High -- | Low -- °F
--% Chance of Precip.
Yesterday
High -- | Low -- °F
Precip. -- in
6:03 AM 6:39 PM
Waxing Crescent, 4% visible
Pressure 29.90 in
Visibility 10.0 miles
Clouds Few 2800 ft
Overcast 6500 ft
Dew Point 70 °F
Humidity 90%
Rainfall 0.23 in
Snow Depth Not available.
UV 0 out of 12
Pollen Not available.
PM2.5 Good
Flu Activity Not available.
METAR PHTO 271553Z 24003KT 10SM FEW028 OVC065 23/21 A2991 RMK AO2 SLP125 T02280211 $

More Conditions Fewer Conditions

Pressure 29.90 in
Visibility 10.0 miles
Clouds Few 2800 ft
Overcast 6500 ft
Dew Point 70 °F
Humidity 90%
Rainfall 0.23 in
Snow Depth Not available.
UV 0 out of 12
Pollen Not available.
PM2.5 Good
Flu Activity Not available.
METAR PHTO 271553Z 24003KT 10SM FEW028 OVC065 23/21 A2991 RMK AO2 SLP125 T02280211 $

More Conditions Fewer Conditions

10-Day Weather Forecast

Almanac

Astronomy

Aug. 27, 2014 Rise Set
Actual Time 6:03 AM HST 6:39 PM HST
Civil Twilight 5:41 AM HST 7:01 PM HST
Nautical Twilight 5:15 AM HST 7:28 PM HST
Astronomical Twilight 4:48 AM HST 7:54 PM HST
Moon 7:47 AM HST 8:03 PM HST
Length of Visible Light 13h 20m
Length of Day
12h 35m
Tomorrow will be 1m 4s shorter.
Waxing Crescent, 4% of the Moon is Illuminated
Today
Waxing Crescent
Sep 2
First Quarter
Sep 8
Full
Sep 15
Last Quarter
Sep 24
New

Today's Extremes

State Highs State Lows

Community

WunderPhotos

Upload Photos

1,747,727 photos uploaded!

Nearby

Air Quality

  Air Quality AQ Index Pollutant
Current Good
PM2.5

Snow Depth

Station Depth Elevation
No new snow has been reported.

Earthquake Activity

City Distance Mag. Time & Date
No recent earthquake activity has been reported nearby.
Minimum magnitude displayed is 2.5.

Coastal Water Temperatures

Place Temperature
No Stations Reporting

Nearby Weather Stations